Time;durP1;ratioP1;P1;durP2;ratioP2;P2;SDS_P1;SDS_P2;PMS_P1;PMS_P2;Temp;Humidity;BMP_temperature;BMP_pressure;BME280_temperature;BME280_humidity;BME280_pressure;Samples;Min_cycle;Max_cycle;Signal;HPM_P1;HPM_P2
2023/07/15 00:02:19;;;;;;;4.13;3.73;;;23.40;74.60;;;;;;4972153;28;20479;-80
2023/07/15 00:04:46;;;;;;;4.60;4.27;;;23.40;75.70;;;;;;4971545;28;21053;-77
2023/07/15 00:07:15;;;;;;;4.30;3.90;;;23.30;75.10;;;;;;4972067;28;20470;-77
2023/07/15 00:09:42;;;;;;;6.27;4.20;;;23.30;75.40;;;;;;4970461;28;20776;-78
2023/07/15 00:12:11;;;;;;;8.43;6.70;;;23.20;75.50;;;;;;4972625;28;20477;-77
2023/07/15 00:14:38;;;;;;;4.43;4.03;;;23.20;75.60;;;;;;4971458;28;20818;-82
2023/07/15 00:17:13;;;;;;;5.70;5.20;;;23.20;75.80;;;;;;4969504;28;20470;-77
2023/07/15 00:19:40;;;;;;;6.40;4.00;;;23.30;76.00;;;;;;4968556;28;20984;-80
2023/07/15 00:22:20;;;;;;;8.13;7.20;;;23.30;76.30;;;;;;4971073;28;20551;-80
2023/07/15 00:24:52;;;;;;;6.07;5.47;;;23.30;76.40;;;;;;4970406;28;20447;-80
2023/07/15 00:27:30;;;;;;;4.93;4.47;;;23.30;76.50;;;;;;4972275;28;20503;-79
2023/07/15 00:29:59;;;;;;;5.17;4.20;;;23.30;76.80;;;;;;4968368;28;20555;-80
2023/07/15 00:32:28;;;;;;;5.57;5.07;;;23.20;76.90;;;;;;4968848;28;20868;-81
2023/07/15 00:34:55;;;;;;;4.30;3.83;;;23.30;77.00;;;;;;4968610;28;20481;-77
2023/07/15 00:37:22;;;;;;;6.47;5.87;;;23.30;77.20;;;;;;4969641;28;20476;-78
2023/07/15 00:39:51;;;;;;;7.00;5.90;;;23.30;77.50;;;;;;4966890;28;21046;-77
2023/07/15 00:42:36;;;;;;;7.70;4.87;;;23.20;77.60;;;;;;4967218;28;20463;-80
2023/07/15 00:45:03;;;;;;;4.20;3.90;;;23.20;77.90;;;;;;4965760;28;20795;-77
2023/07/15 00:47:38;;;;;;;8.70;7.87;;;23.20;78.30;;;;;;4969847;28;20820;-77
2023/07/15 00:50:06;;;;;;;7.00;6.40;;;23.20;78.40;;;;;;4943709;28;20485;-80
2023/07/15 00:52:34;;;;;;;4.20;3.80;;;23.20;78.50;;;;;;4951070;28;20471;-80
2023/07/15 00:55:03;;;;;;;5.57;5.07;;;23.20;78.80;;;;;;4960129;28;20609;-77
2023/07/15 00:57:30;;;;;;;4.97;4.60;;;23.20;79.00;;;;;;4967839;28;20471;-80
2023/07/15 00:59:59;;;;;;;5.40;4.23;;;23.20;79.00;;;;;;4970675;28;20477;-80
2023/07/15 01:02:26;;;;;;;6.80;6.13;;;23.10;79.30;;;;;;4964449;28;20467;-80
2023/07/15 01:04:55;;;;;;;4.83;4.30;;;23.10;79.50;;;;;;4966162;28;20941;-77
2023/07/15 01:07:22;;;;;;;6.83;5.20;;;23.10;79.90;;;;;;4968020;28;20845;-77
2023/07/15 01:09:50;;;;;;;8.17;4.60;;;23.10;80.00;;;;;;4966065;28;20781;-80
2023/07/15 01:12:18;;;;;;;8.80;7.90;;;23.10;80.10;;;;;;4970309;28;20470;-77
2023/07/15 01:14:45;;;;;;;8.40;4.80;;;23.10;80.20;;;;;;4969680;28;20566;-78
2023/07/15 01:17:13;;;;;;;4.90;4.40;;;23.10;80.40;;;;;;4968884;28;20494;-80
2023/07/15 01:19:40;;;;;;;6.20;5.07;;;23.00;80.50;;;;;;4969620;28;20488;-80
2023/07/15 01:22:09;;;;;;;6.70;6.00;;;23.00;80.60;;;;;;4968137;28;20474;-79
2023/07/15 01:24:39;;;;;;;8.47;7.67;;;23.00;80.70;;;;;;4968764;28;20566;-76
2023/07/15 01:27:08;;;;;;;7.57;6.93;;;23.00;80.70;;;;;;4967566;28;20471;-76
2023/07/15 01:29:35;;;;;;;9.80;8.43;;;23.00;80.80;;;;;;4967902;28;20475;-76
2023/07/15 01:32:02;;;;;;;4.43;4.07;;;23.00;80.90;;;;;;4968515;28;20463;-80
2023/07/15 01:34:31;;;;;;;5.70;5.20;;;23.00;81.00;;;;;;4970031;28;20486;-77
2023/07/15 01:36:59;;;;;;;6.27;5.67;;;23.00;81.10;;;;;;4969324;28;20474;-79
2023/07/15 01:39:27;;;;;;;8.37;6.93;;;23.00;81.20;;;;;;4969712;28;20471;-77
2023/07/15 01:41:56;;;;;;;4.93;4.43;;;23.00;81.20;;;;;;4969186;28;20463;-77
2023/07/15 01:44:24;;;;;;;5.80;4.33;;;23.00;81.30;;;;;;4965714;28;20470;-77
2023/07/15 01:46:55;;;;;;;5.30;4.23;;;22.90;81.40;;;;;;4959736;28;20574;-80
2023/07/15 01:49:21;;;;;;;5.97;3.90;;;22.90;81.60;;;;;;4958451;28;20483;-80
2023/07/15 01:51:49;;;;;;;4.27;4.00;;;22.90;81.70;;;;;;4961127;28;20475;-77
2023/07/15 01:54:16;;;;;;;5.60;4.50;;;22.80;81.90;;;;;;4959586;28;20492;-77
2023/07/15 01:56:43;;;;;;;4.97;4.57;;;22.80;82.00;;;;;;4960808;28;20551;-80
2023/07/15 01:59:11;;;;;;;4.30;3.90;;;22.80;82.40;;;;;;4959603;28;20482;-77
2023/07/15 02:01:40;;;;;;;4.87;4.47;;;22.80;82.50;;;;;;4960436;28;20467;-80
2023/07/15 02:04:09;;;;;;;4.80;4.40;;;22.60;82.70;;;;;;4951512;28;21053;-77
2023/07/15 02:06:36;;;;;;;4.50;4.20;;;22.60;82.90;;;;;;4949252;28;20530;-77
2023/07/15 02:09:07;;;;;;;7.10;6.43;;;22.60;83.10;;;;;;4952341;28;20486;-77
2023/07/15 02:11:34;;;;;;;6.53;5.93;;;22.60;83.10;;;;;;4953312;28;20495;-80
2023/07/15 02:14:02;;;;;;;6.53;5.80;;;22.60;83.20;;;;;;4952693;28;20471;-80
2023/07/15 02:16:31;;;;;;;6.07;5.50;;;22.60;83.50;;;;;;4954728;28;20568;-81
2023/07/15 02:18:58;;;;;;;5.47;4.97;;;22.60;83.80;;;;;;4963880;28;20491;-76
2023/07/15 02:21:26;;;;;;;9.87;6.50;;;22.60;83.80;;;;;;4962588;28;20477;-80
2023/07/15 02:23:53;;;;;;;8.10;7.40;;;22.60;84.20;;;;;;4961277;28;20476;-80
2023/07/15 02:26:21;;;;;;;11.07;7.87;;;22.50;84.30;;;;;;4961934;28;20475;-79
2023/07/15 02:28:51;;;;;;;5.60;5.10;;;22.50;84.50;;;;;;4963870;28;20471;-79
2023/07/15 02:31:19;;;;;;;6.10;5.60;;;22.40;84.60;;;;;;4952495;28;20475;-76
2023/07/15 02:33:48;;;;;;;6.13;5.53;;;22.40;84.60;;;;;;4952115;28;20480;-79
2023/07/15 02:36:18;;;;;;;5.37;4.87;;;22.40;84.70;;;;;;4953271;28;20601;-79
2023/07/15 02:38:48;;;;;;;5.80;5.10;;;22.40;84.90;;;;;;4953470;28;20479;-79
2023/07/15 02:41:15;;;;;;;9.00;5.97;;;22.40;85.00;;;;;;4951505;28;20543;-79
2023/07/15 02:43:42;;;;;;;6.50;5.90;;;22.40;85.30;;;;;;4954451;28;20507;-80
2023/07/15 02:46:09;;;;;;;6.53;5.10;;;22.30;85.40;;;;;;4973055;28;20965;-79
2023/07/15 02:48:36;;;;;;;10.83;9.83;;;22.30;85.50;;;;;;4966799;28;20464;-79
2023/07/15 02:51:04;;;;;;;5.77;5.27;;;22.30;85.70;;;;;;4968325;28;20556;-79
2023/07/15 02:53:34;;;;;;;6.20;5.60;;;22.30;86.00;;;;;;4964168;28;20475;-76
2023/07/15 02:56:01;;;;;;;5.70;5.10;;;22.30;86.30;;;;;;4974757;28;20549;-76
2023/07/15 02:58:28;;;;;;;5.67;5.20;;;22.20;86.30;;;;;;4975705;28;20533;-76
2023/07/15 03:00:55;;;;;;;5.43;4.90;;;22.20;86.40;;;;;;4976378;28;20479;-79
2023/07/15 03:03:22;;;;;;;6.43;5.40;;;22.20;86.50;;;;;;4976381;28;20508;-79
2023/07/15 03:05:54;;;;;;;6.50;6.00;;;22.20;86.70;;;;;;4966157;28;20502;-76
2023/07/15 03:08:22;;;;;;;4.83;4.43;;;22.20;86.90;;;;;;4975294;28;20546;-76
2023/07/15 03:10:50;;;;;;;7.60;6.90;;;22.10;87.30;;;;;;4977014;28;20546;-80
2023/07/15 03:13:17;;;;;;;5.30;4.80;;;22.10;87.50;;;;;;4976713;28;20521;-79
2023/07/15 03:15:44;;;;;;;6.63;6.03;;;22.00;87.60;;;;;;4975973;28;20481;-80
2023/07/15 03:18:11;;;;;;;4.93;4.60;;;22.00;87.70;;;;;;4976444;28;20541;-80
2023/07/15 03:20:39;;;;;;;5.37;4.37;;;22.00;87.80;;;;;;4975206;28;20486;-79
2023/07/15 03:23:06;;;;;;;4.87;4.47;;;22.00;88.00;;;;;;4975444;28;20785;-79
2023/07/15 03:25:34;;;;;;;5.30;4.80;;;22.00;88.90;;;;;;4975613;28;20513;-80
2023/07/15 03:28:01;;;;;;;6.93;6.20;;;22.00;88.30;;;;;;4976304;28;20485;-79
2023/07/15 03:30:35;;;;;;;5.90;5.30;;;21.90;88.40;;;;;;4975492;28;20489;-76
2023/07/15 03:33:02;;;;;;;9.70;5.80;;;21.90;88.60;;;;;;4976220;28;20469;-80
2023/07/15 03:35:29;;;;;;;6.90;6.30;;;21.90;88.70;;;;;;4974792;28;20479;-79
2023/07/15 03:37:56;;;;;;;8.90;8.10;;;21.80;88.90;;;;;;4975489;28;20503;-76
2023/07/15 03:40:23;;;;;;;7.60;6.93;;;21.90;89.00;;;;;;4975639;28;20499;-76
2023/07/15 03:42:53;;;;;;;5.70;5.20;;;21.90;90.00;;;;;;4976067;28;20533;-76
2023/07/15 03:45:20;;;;;;;6.50;5.90;;;21.80;89.10;;;;;;4974936;28;20467;-75
2023/07/15 03:47:47;;;;;;;5.50;5.00;;;21.90;89.30;;;;;;4975521;28;21000;-79
2023/07/15 03:50:14;;;;;;;5.10;4.70;;;21.90;89.40;;;;;;4975752;28;20471;-79
2023/07/15 03:52:41;;;;;;;5.23;4.77;;;21.80;89.50;;;;;;4975118;28;20475;-79
2023/07/15 03:55:13;;;;;;;5.53;5.10;;;21.90;89.70;;;;;;4975759;28;20993;-75
2023/07/15 03:57:43;;;;;;;5.73;4.90;;;21.90;89.70;;;;;;4975702;28;20467;-76
2023/07/15 04:00:17;;;;;;;6.20;5.67;;;21.90;89.70;;;;;;4975645;28;20837;-79
2023/07/15 04:02:46;;;;;;;5.23;4.73;;;21.90;89.90;;;;;;4974683;28;20569;-79
2023/07/15 04:05:13;;;;;;;9.10;5.67;;;21.90;90.00;;;;;;4975374;28;20470;-79
2023/07/15 04:07:43;;;;;;;8.70;6.17;;;21.90;90.20;;;;;;4974257;28;20813;-75
2023/07/15 04:10:11;;;;;;;5.83;5.27;;;21.80;90.30;;;;;;4975293;28;20467;-80
2023/07/15 04:12:38;;;;;;;6.80;4.90;;;21.80;90.40;;;;;;4975494;28;20467;-79
2023/07/15 04:15:06;;;;;;;5.80;5.17;;;21.80;90.50;;;;;;4975600;28;20474;-77
2023/07/15 04:17:35;;;;;;;5.83;5.33;;;21.80;90.60;;;;;;4967257;28;20466;-76
2023/07/15 04:20:07;;;;;;;4.97;4.57;;;21.80;90.60;;;;;;4975669;28;20471;-81
2023/07/15 04:22:37;;;;;;;6.13;5.47;;;21.90;90.70;;;;;;4975158;28;20489;-80
2023/07/15 04:25:04;;;;;;;5.53;4.53;;;21.90;90.80;;;;;;4975355;28;20546;-80
2023/07/15 04:27:31;;;;;;;5.87;5.30;;;21.90;91.10;;;;;;4975015;28;20475;-80
2023/07/15 04:29:59;;;;;;;5.63;5.10;;;22.00;90.80;;;;;;4975402;28;20471;-77
2023/07/15 04:32:31;;;;;;;5.73;5.23;;;22.10;90.80;;;;;;4975509;28;20481;-77
2023/07/15 04:35:01;;;;;;;5.57;5.07;;;22.10;90.70;;;;;;4973440;28;20555;-77
2023/07/15 04:37:29;;;;;;;6.80;4.97;;;22.20;90.80;;;;;;4974908;28;20472;-76
2023/07/15 04:39:56;;;;;;;6.43;5.87;;;22.20;90.80;;;;;;4974654;28;20498;-80
2023/07/15 04:42:23;;;;;;;6.70;5.60;;;22.30;90.80;;;;;;4975217;28;20482;-80
2023/07/15 04:44:50;;;;;;;4.93;4.60;;;22.30;90.80;;;;;;4974317;28;20486;-80
2023/07/15 04:47:17;;;;;;;5.27;4.73;;;22.40;90.80;;;;;;4975232;28;20471;-79
2023/07/15 04:49:44;;;;;;;5.33;4.90;;;22.50;90.80;;;;;;4974610;28;20976;-76
2023/07/15 04:52:13;;;;;;;5.53;5.13;;;22.50;90.70;;;;;;4975129;28;20815;-80
2023/07/15 04:54:49;;;;;;;5.10;4.70;;;22.60;90.60;;;;;;4974112;28;20474;-76
2023/07/15 04:57:19;;;;;;;5.57;5.17;;;22.70;90.70;;;;;;4974719;28;20787;-76
2023/07/15 04:59:48;;;;;;;5.70;5.30;;;22.80;90.60;;;;;;4974768;28;20471;-76
2023/07/15 05:02:16;;;;;;;4.50;4.20;;;22.80;90.60;;;;;;4974706;28;20490;-80
2023/07/15 05:04:43;;;;;;;7.93;4.73;;;22.90;90.50;;;;;;4973919;28;20486;-76
2023/07/15 05:07:10;;;;;;;5.10;4.70;;;22.90;90.50;;;;;;4974593;28;20812;-80
2023/07/15 05:09:39;;;;;;;4.80;4.40;;;22.90;90.40;;;;;;4974462;28;20510;-80
2023/07/15 05:12:07;;;;;;;5.13;4.40;;;23.00;90.50;;;;;;4973257;28;20474;-76
2023/07/15 05:14:34;;;;;;;6.57;5.93;;;23.00;90.50;;;;;;4974574;28;20570;-79
2023/07/15 05:17:02;;;;;;;4.70;4.30;;;23.00;90.60;;;;;;4974082;28;20486;-76
2023/07/15 05:19:29;;;;;;;4.50;4.20;;;23.00;90.50;;;;;;4974525;28;20467;-81
2023/07/15 05:21:56;;;;;;;5.73;5.00;;;23.00;90.60;;;;;;4974224;28;20470;-76
2023/07/15 05:24:28;;;;;;;5.27;4.77;;;23.00;90.50;;;;;;4974316;28;20485;-76
2023/07/15 05:26:58;;;;;;;7.67;4.80;;;23.10;90.60;;;;;;4974143;28;20470;-79
2023/07/15 05:29:25;;;;;;;4.23;3.93;;;23.10;90.50;;;;;;4974642;28;20474;-80
2023/07/15 05:31:52;;;;;;;6.10;5.50;;;23.20;90.50;;;;;;4973467;28;20498;-80
2023/07/15 05:34:20;;;;;;;5.53;5.13;;;23.20;90.50;;;;;;4974292;28;20505;-76
2023/07/15 05:36:46;;;;;;;5.70;4.43;;;23.30;90.50;;;;;;4973742;28;20479;-79
2023/07/15 05:39:14;;;;;;;4.60;4.30;;;23.30;90.50;;;;;;4974379;28;20459;-79
2023/07/15 05:41:41;;;;;;;4.67;4.37;;;23.30;90.50;;;;;;4974855;28;20498;-80
2023/07/15 05:44:10;;;;;;;5.73;5.23;;;23.40;90.60;;;;;;4973169;28;20545;-76
2023/07/15 05:46:37;;;;;;;5.30;4.80;;;23.40;90.50;;;;;;4976670;28;20867;-80
2023/07/15 05:49:04;;;;;;;5.60;4.43;;;23.50;90.40;;;;;;4976793;28;20501;-80
2023/07/15 05:51:33;;;;;;;5.30;4.80;;;23.50;90.30;;;;;;4977301;28;20474;-80
2023/07/15 05:54:00;;;;;;;6.53;5.87;;;23.60;90.20;;;;;;4977225;28;20485;-80
2023/07/15 05:56:27;;;;;;;7.30;4.80;;;23.60;90.10;;;;;;4977789;28;20498;-76
2023/07/15 05:58:54;;;;;;;4.13;3.83;;;23.80;90.20;;;;;;4977623;28;20490;-80
2023/07/15 06:01:22;;;;;;;5.07;4.77;;;23.80;90.20;;;;;;4977357;28;20557;-80
2023/07/15 06:03:49;;;;;;;4.67;4.17;;;23.90;90.10;;;;;;4977569;28;20502;-77
2023/07/15 06:06:16;;;;;;;5.63;5.13;;;23.90;90.00;;;;;;4978639;28;20546;-79
2023/07/15 06:08:43;;;;;;;4.40;4.10;;;24.00;89.70;;;;;;4977825;28;20505;-80
2023/07/15 06:11:10;;;;;;;6.47;4.73;;;24.00;89.10;;;;;;4977853;28;20758;-76
2023/07/15 06:13:37;;;;;;;6.27;4.63;;;24.20;89.30;;;;;;4977445;28;20494;-79
2023/07/15 06:16:05;;;;;;;5.57;5.00;;;24.20;88.90;;;;;;4976972;28;20566;-80
2023/07/15 06:18:33;;;;;;;5.10;4.70;;;24.30;88.60;;;;;;4977322;28;20501;-76
2023/07/15 06:21:00;;;;;;;5.00;4.57;;;24.50;88.60;;;;;;4976871;28;21012;-76
2023/07/15 06:23:27;;;;;;;5.60;5.20;;;24.60;87.90;;;;;;4977540;28;20509;-76
2023/07/15 06:25:56;;;;;;;5.13;4.33;;;24.70;87.50;;;;;;4976853;28;20501;-76
2023/07/15 06:28:23;;;;;;;5.40;4.90;;;24.80;87.20;;;;;;4977384;28;20505;-76
2023/07/15 06:30:50;;;;;;;5.20;4.80;;;25.00;86.90;;;;;;4977650;28;20854;-80
2023/07/15 06:33:17;;;;;;;5.43;4.80;;;25.20;87.00;;;;;;4976546;28;20486;-76
2023/07/15 06:35:46;;;;;;;4.00;3.70;;;25.30;86.00;;;;;;4977527;28;20479;-80
2023/07/15 06:38:13;;;;;;;4.40;4.00;;;25.40;85.60;;;;;;4976950;28;25397;-80
2023/07/15 06:40:41;;;;;;;5.90;5.30;;;25.60;85.30;;;;;;4959735;28;20474;-77
2023/07/15 06:43:09;;;;;;;4.07;3.80;;;25.80;84.30;;;;;;4977359;28;20475;-77
2023/07/15 06:45:36;;;;;;;4.40;4.00;;;26.00;83.20;;;;;;4977501;28;20479;-77
2023/07/15 06:48:03;;;;;;;6.77;4.43;;;26.10;82.70;;;;;;4982452;28;20871;-77
2023/07/15 06:50:30;;;;;;;4.93;4.23;;;26.30;82.80;;;;;;4983486;28;20813;-79
2023/07/15 06:52:59;;;;;;;4.00;3.80;;;26.40;82.00;;;;;;4985462;28;20504;-79
2023/07/15 06:55:26;;;;;;;6.33;4.30;;;26.60;82.80;;;;;;4985741;28;20503;-79
2023/07/15 06:57:53;;;;;;;4.80;4.37;;;26.80;82.80;;;;;;4984531;28;20508;-82
2023/07/15 07:00:21;;;;;;;4.40;4.00;;;26.90;81.80;;;;;;4986974;28;20473;-77
2023/07/15 07:02:49;;;;;;;4.20;3.90;;;27.10;79.50;;;;;;4985251;28;20474;-77
2023/07/15 07:05:16;;;;;;;4.40;4.00;;;27.20;78.70;;;;;;4985511;28;20469;-79
2023/07/15 07:07:43;;;;;;;3.53;3.23;;;27.40;78.10;;;;;;4984173;28;20474;-77
2023/07/15 07:10:12;;;;;;;5.63;3.53;;;27.50;77.30;;;;;;4982434;28;20534;-79
2023/07/15 07:12:39;;;;;;;5.30;4.23;;;27.60;77.50;;;;;;4985296;28;20498;-80
2023/07/15 07:15:07;;;;;;;6.73;5.20;;;27.70;77.00;;;;;;4988047;28;20539;-80
2023/07/15 07:17:34;;;;;;;4.53;4.13;;;27.90;77.80;;;;;;4986063;28;20622;-77
2023/07/15 07:20:03;;;;;;;4.53;4.13;;;28.00;77.80;;;;;;4985592;28;20467;-78
2023/07/15 07:22:31;;;;;;;8.20;6.90;;;28.20;77.00;;;;;;4985613;28;20486;-79
2023/07/15 07:24:59;;;;;;;5.70;5.20;;;28.30;77.80;;;;;;4985377;28;20498;-77
2023/07/15 07:27:27;;;;;;;6.53;4.73;;;28.50;77.70;;;;;;4985088;28;20482;-80
2023/07/15 07:29:58;;;;;;;6.07;4.20;;;28.60;74.90;;;;;;4985814;28;20988;-77
2023/07/15 07:32:25;;;;;;;4.20;3.80;;;28.70;75.20;;;;;;4987273;28;20538;-77
2023/07/15 07:34:52;;;;;;;4.53;4.20;;;28.90;73.50;;;;;;4986604;28;20471;-77
2023/07/15 07:37:19;;;;;;;4.23;3.93;;;29.00;72.60;;;;;;4988781;28;20469;-77
2023/07/15 07:39:45;;;;;;;5.13;3.60;;;29.20;73.70;;;;;;4986940;28;20475;-77
2023/07/15 07:42:14;;;;;;;5.50;4.10;;;29.40;71.30;;;;;;4987266;28;20482;-80
2023/07/15 07:44:44;;;;;;;4.83;4.50;;;29.50;71.00;;;;;;4990688;28;20798;-80
2023/07/15 07:47:11;;;;;;;5.27;4.87;;;29.70;71.60;;;;;;4993174;28;20470;-79
2023/07/15 07:49:38;;;;;;;4.80;4.30;;;29.80;71.10;;;;;;4990920;28;20466;-81
2023/07/15 07:52:06;;;;;;;6.80;6.27;;;30.10;70.00;;;;;;4987227;28;20475;-81
2023/07/15 07:54:33;;;;;;;5.70;4.97;;;30.20;70.50;;;;;;4985354;28;20463;-80
2023/07/15 07:57:01;;;;;;;7.20;4.90;;;30.40;69.00;;;;;;4985006;28;20467;-76
2023/07/15 07:59:29;;;;;;;4.73;4.33;;;30.50;68.60;;;;;;4982943;28;20558;-77
2023/07/15 08:01:57;;;;;;;6.83;5.20;;;30.60;67.90;;;;;;4985300;28;20470;-77
2023/07/15 08:04:24;;;;;;;7.60;6.57;;;30.70;68.60;;;;;;4986228;28;20498;-79
2023/07/15 08:06:51;;;;;;;5.00;4.30;;;30.80;69.40;;;;;;4988906;28;20499;-78
2023/07/15 08:09:18;;;;;;;5.43;5.03;;;30.90;68.50;;;;;;4984948;28;20471;-80
2023/07/15 08:11:45;;;;;;;6.93;4.10;;;31.00;68.90;;;;;;4984959;28;20466;-80
2023/07/15 08:14:12;;;;;;;4.33;4.00;;;31.10;67.90;;;;;;4983333;28;20477;-81
2023/07/15 08:16:42;;;;;;;5.33;4.93;;;31.20;66.80;;;;;;4979624;28;20473;-80
2023/07/15 08:19:11;;;;;;;3.80;3.50;;;31.30;66.60;;;;;;4977842;28;20573;-77
2023/07/15 08:21:38;;;;;;;4.57;3.37;;;31.30;65.40;;;;;;4977546;28;20518;-77
2023/07/15 08:24:06;;;;;;;4.40;4.00;;;31.50;64.70;;;;;;4977670;28;20478;-77
2023/07/15 08:26:34;;;;;;;5.77;5.20;;;31.60;64.90;;;;;;4951109;28;20509;-77
2023/07/15 08:29:04;;;;;;;3.93;3.73;;;31.70;66.70;;;;;;4977305;28;20542;-80
2023/07/15 08:31:31;;;;;;;4.40;4.00;;;31.70;64.70;;;;;;4976500;28;20462;-81
2023/07/15 08:33:58;;;;;;;5.40;3.63;;;31.80;65.40;;;;;;4977148;28;20474;-81
2023/07/15 08:36:26;;;;;;;4.30;3.90;;;31.80;63.40;;;;;;4976809;28;20498;-77
2023/07/15 08:38:59;;;;;;;5.10;4.70;;;31.80;63.40;;;;;;4976965;28;20550;-81
2023/07/15 08:41:26;;;;;;;5.87;3.40;;;31.90;64.20;;;;;;4977485;28;20619;-77
2023/07/15 08:43:53;;;;;;;5.13;4.73;;;31.90;63.10;;;;;;4976935;28;20542;-80
2023/07/15 08:46:27;;;;;;;4.60;4.20;;;32.00;64.60;;;;;;4976925;28;20479;-77
2023/07/15 08:48:54;;;;;;;3.47;3.17;;;32.00;63.70;;;;;;4978302;28;20498;-77
2023/07/15 08:51:23;;;;;;;4.03;3.57;;;32.00;62.70;;;;;;4976844;28;20463;-80
2023/07/15 08:53:52;;;;;;;4.47;4.07;;;32.10;62.50;;;;;;4977813;28;20521;-77
2023/07/15 08:56:20;;;;;;;4.83;4.37;;;32.10;64.20;;;;;;4978331;28;20515;-80
2023/07/15 08:58:50;;;;;;;5.90;5.33;;;32.10;64.30;;;;;;4978601;28;20474;-80
2023/07/15 09:01:17;;;;;;;4.60;4.13;;;32.10;64.10;;;;;;4977183;28;20470;-79
2023/07/15 09:03:44;;;;;;;4.53;4.20;;;32.00;61.90;;;;;;4975215;28;20538;-79
2023/07/15 09:06:12;;;;;;;5.00;4.60;;;32.10;63.10;;;;;;4975621;28;20505;-80
2023/07/15 09:08:42;;;;;;;6.67;4.50;;;32.10;63.50;;;;;;4975629;28;20462;-79
2023/07/15 09:11:13;;;;;;;3.73;3.43;;;32.10;62.90;;;;;;4974999;28;20481;-76
2023/07/15 09:13:40;;;;;;;3.37;3.13;;;32.10;61.80;;;;;;4974824;28;20457;-77
2023/07/15 09:16:07;;;;;;;4.80;3.30;;;32.00;61.60;;;;;;4975013;28;20498;-76
2023/07/15 09:18:40;;;;;;;4.20;3.90;;;31.90;61.60;;;;;;4975184;28;20502;-76
2023/07/15 09:21:11;;;;;;;4.80;4.40;;;31.90;63.40;;;;;;4977453;28;20498;-79
2023/07/15 09:23:40;;;;;;;4.77;4.37;;;31.90;63.20;;;;;;4979700;28;20554;-79
2023/07/15 09:26:10;;;;;;;4.23;3.83;;;31.90;63.80;;;;;;4979397;28;21052;-76
2023/07/15 09:28:40;;;;;;;3.70;3.17;;;31.90;63.40;;;;;;4978747;28;20471;-76
2023/07/15 09:31:07;;;;;;;7.67;3.40;;;31.90;62.30;;;;;;4978065;28;20571;-76
2023/07/15 09:33:38;;;;;;;3.30;3.10;;;31.80;63.10;;;;;;4978407;28;20546;-79
2023/07/15 09:36:05;;;;;;;3.80;3.50;;;31.70;62.00;;;;;;4969023;28;20475;-80
2023/07/15 09:38:33;;;;;;;3.53;2.97;;;31.70;62.40;;;;;;4978468;28;20479;-76
2023/07/15 09:41:01;;;;;;;3.77;3.40;;;31.70;62.20;;;;;;4978532;28;20481;-77
2023/07/15 09:43:49;;;;;;;2.93;2.73;;;31.70;62.50;;;;;;4978155;28;20550;-77
2023/07/15 09:46:18;;;;;;;3.93;3.50;;;31.70;62.60;;;;;;4979024;28;20463;-76
2023/07/15 09:48:46;;;;;;;5.17;4.73;;;31.70;63.50;;;;;;4978644;28;20533;-76
2023/07/15 09:51:15;;;;;;;5.00;4.33;;;31.80;64.10;;;;;;4978597;28;20494;-80
2023/07/15 09:53:45;;;;;;;3.33;3.07;;;31.70;64.20;;;;;;4978154;28;20476;-79
2023/07/15 09:56:12;;;;;;;5.77;3.80;;;31.70;63.10;;;;;;4979477;28;20480;-76
2023/07/15 09:58:46;;;;;;;3.47;3.20;;;31.70;62.60;;;;;;4977970;28;20474;-76
2023/07/15 10:01:22;;;;;;;4.13;3.40;;;31.70;63.60;;;;;;4969907;28;20562;-76
2023/07/15 10:03:56;;;;;;;3.07;2.87;;;31.70;63.40;;;;;;4977797;28;20497;-76
2023/07/15 10:06:24;;;;;;;3.47;3.27;;;31.80;64.40;;;;;;4978778;28;20494;-76
2023/07/15 10:08:52;;;;;;;3.80;3.20;;;31.80;63.30;;;;;;4977643;28;20972;-79
2023/07/15 10:11:19;;;;;;;3.77;3.47;;;31.70;62.80;;;;;;4978285;28;20885;-79
2023/07/15 10:13:46;;;;;;;4.07;3.77;;;31.70;64.30;;;;;;4977988;28;20478;-79
2023/07/15 10:16:15;;;;;;;3.90;3.47;;;31.80;64.50;;;;;;4978449;28;20877;-79
2023/07/15 10:18:42;;;;;;;5.00;3.40;;;31.90;64.00;;;;;;4977600;28;20474;-76
2023/07/15 10:21:10;;;;;;;5.27;3.10;;;31.90;64.00;;;;;;4977103;28;21012;-81
2023/07/15 10:23:37;;;;;;;4.27;3.87;;;31.80;63.50;;;;;;4977654;28;20470;-76
2023/07/15 10:26:05;;;;;;;4.87;3.77;;;31.90;64.30;;;;;;4978911;28;20537;-76
2023/07/15 10:28:34;;;;;;;3.70;3.40;;;31.90;63.20;;;;;;4978475;28;20534;-76
2023/07/15 10:31:13;;;;;;;4.17;3.87;;;31.90;62.70;;;;;;4977860;28;20797;-80
2023/07/15 10:33:55;;;;;;;4.03;3.70;;;32.00;62.60;;;;;;4976473;28;20471;-80
2023/07/15 10:36:43;;;;;;;4.20;3.87;;;32.00;62.80;;;;;;4977713;28;20483;-79
2023/07/15 10:39:12;;;;;;;3.20;2.90;;;32.10;62.70;;;;;;4977057;28;20458;-79
2023/07/15 10:41:44;;;;;;;7.93;3.60;;;32.00;60.40;;;;;;4978728;28;20521;-79
2023/07/15 10:44:21;;;;;;;3.30;2.97;;;32.00;60.20;;;;;;4978311;28;20550;-76
2023/07/15 10:46:51;;;;;;;3.80;3.50;;;32.10;60.20;;;;;;4976890;28;20474;-79
2023/07/15 10:49:21;;;;;;;7.13;3.77;;;32.20;60.30;;;;;;4978505;28;20459;-79
2023/07/15 10:51:52;;;;;;;3.57;3.30;;;32.20;60.30;;;;;;4977375;28;20471;-79
2023/07/15 10:54:20;;;;;;;4.50;3.07;;;32.30;60.00;;;;;;4977641;28;20988;-76
2023/07/15 10:56:48;;;;;;;3.20;3.00;;;32.30;60.40;;;;;;4976505;28;20471;-77
2023/07/15 10:59:15;;;;;;;3.47;3.17;;;32.30;59.50;;;;;;4977892;28;20474;-76
2023/07/15 11:01:43;;;;;;;4.00;3.70;;;32.30;59.10;;;;;;4977740;28;20859;-76
2023/07/15 11:04:10;;;;;;;3.57;3.30;;;32.30;59.80;;;;;;4977024;28;20505;-76
2023/07/15 11:06:39;;;;;;;5.17;4.57;;;32.40;59.10;;;;;;4976846;28;20824;-80
2023/07/15 11:09:16;;;;;;;4.20;3.90;;;32.40;59.60;;;;;;4976904;28;20546;-80
2023/07/15 11:11:43;;;;;;;5.50;5.10;;;32.40;59.80;;;;;;4977584;28;20510;-81
2023/07/15 11:14:24;;;;;;;4.07;3.77;;;32.40;59.70;;;;;;4976950;28;20554;-79
2023/07/15 11:16:55;;;;;;;6.53;3.93;;;32.40;59.60;;;;;;4977241;28;20812;-79
2023/07/15 11:19:23;;;;;;;3.67;3.40;;;32.40;59.80;;;;;;4978051;28;20470;-76
2023/07/15 11:21:52;;;;;;;4.73;3.87;;;32.40;58.60;;;;;;4977010;28;20510;-77
2023/07/15 11:24:21;;;;;;;5.87;5.20;;;32.40;58.80;;;;;;4977264;28;20479;-79
2023/07/15 11:26:48;;;;;;;4.33;3.93;;;32.50;59.50;;;;;;4977579;28;20474;-80
2023/07/15 11:29:16;;;;;;;4.53;4.23;;;32.40;59.50;;;;;;4975941;28;20802;-76
2023/07/15 11:31:44;;;;;;;5.60;3.40;;;32.40;59.40;;;;;;4977663;28;20981;-76
2023/07/15 11:34:11;;;;;;;4.90;4.37;;;32.40;59.00;;;;;;4976150;28;20470;-77
2023/07/15 11:36:39;;;;;;;4.00;3.60;;;32.40;58.10;;;;;;4976711;28;20554;-77
2023/07/15 11:39:07;;;;;;;4.40;4.00;;;32.40;58.00;;;;;;4976482;28;20782;-77
2023/07/15 11:41:36;;;;;;;4.00;3.70;;;32.40;58.00;;;;;;4976784;28;20493;-77
2023/07/15 11:44:07;;;;;;;3.80;3.23;;;32.40;58.00;;;;;;4975189;28;20591;-80
2023/07/15 11:46:35;;;;;;;4.30;3.57;;;32.40;57.30;;;;;;4976972;28;20463;-77
2023/07/15 11:49:03;;;;;;;3.30;3.10;;;32.30;57.40;;;;;;4976091;28;20955;-80
2023/07/15 11:51:31;;;;;;;3.33;3.03;;;32.30;56.70;;;;;;4976514;28;20474;-77
2023/07/15 11:53:58;;;;;;;3.47;3.17;;;32.30;56.80;;;;;;4975411;28;20495;-81
2023/07/15 11:56:41;;;;;;;3.80;3.30;;;32.30;56.30;;;;;;4976317;28;20471;-81
2023/07/15 11:59:09;;;;;;;2.70;2.50;;;32.30;56.00;;;;;;4976119;28;20490;-80
2023/07/15 12:01:38;;;;;;;3.00;2.80;;;32.30;55.70;;;;;;4976030;28;20809;-81
2023/07/15 12:04:13;;;;;;;3.00;2.70;;;32.40;55.10;;;;;;4975259;28;20471;-77
2023/07/15 12:06:54;;;;;;;3.00;2.73;;;32.40;55.00;;;;;;4976458;28;20477;-77
2023/07/15 12:09:21;;;;;;;3.23;3.00;;;32.40;55.70;;;;;;4975795;28;20459;-77
2023/07/15 12:11:50;;;;;;;2.80;2.60;;;32.40;55.60;;;;;;4976794;28;20487;-81
2023/07/15 12:14:18;;;;;;;2.67;2.47;;;32.40;55.00;;;;;;4976082;28;20529;-81
2023/07/15 12:16:47;;;;;;;3.43;2.50;;;32.40;54.60;;;;;;4978621;28;20933;-81
2023/07/15 12:19:18;;;;;;;3.20;2.90;;;32.40;54.90;;;;;;4976564;28;20475;-80
2023/07/15 12:21:46;;;;;;;2.70;2.53;;;32.40;54.80;;;;;;4976086;28;20505;-81
2023/07/15 12:24:13;;;;;;;3.07;2.13;;;32.40;54.30;;;;;;4974985;28;20474;-77
2023/07/15 12:26:40;;;;;;;2.40;2.20;;;32.40;53.80;;;;;;4975361;28;20499;-81
2023/07/15 12:29:09;;;;;;;2.70;2.50;;;32.50;54.10;;;;;;4974291;28;20578;-81
2023/07/15 12:31:36;;;;;;;3.00;1.93;;;32.50;54.30;;;;;;4975155;28;20479;-81
2023/07/15 12:34:03;;;;;;;2.60;2.40;;;32.50;54.40;;;;;;4974955;28;20615;-81
2023/07/15 12:36:30;;;;;;;3.10;2.90;;;32.50;54.40;;;;;;4974327;28;20541;-80
2023/07/15 12:38:57;;;;;;;3.13;2.93;;;32.50;54.60;;;;;;4975634;28;20489;-81
2023/07/15 12:41:24;;;;;;;3.93;3.53;;;32.50;54.70;;;;;;4975026;28;20573;-81
2023/07/15 12:43:51;;;;;;;2.53;2.33;;;32.40;54.60;;;;;;4975323;28;20530;-76
2023/07/15 12:46:19;;;;;;;2.93;2.20;;;32.40;53.80;;;;;;4973455;28;20984;-76
2023/07/15 12:48:48;;;;;;;2.57;2.37;;;32.40;53.30;;;;;;4975099;28;20510;-77
2023/07/15 12:51:15;;;;;;;2.30;2.03;;;32.40;53.40;;;;;;4974064;28;20478;-80
2023/07/15 12:53:42;;;;;;;3.10;2.57;;;32.50;53.80;;;;;;4974942;28;20558;-80
2023/07/15 12:56:13;;;;;;;2.40;2.10;;;32.40;53.50;;;;;;4973438;28;20475;-76